Time;durP1;ratioP1;P1;durP2;ratioP2;P2;SDS_P1;SDS_P2;PMS_P1;PMS_P2;Temp;Humidity;BMP_temperature;BMP_pressure;BME280_temperature;BME280_humidity;BME280_pressure;Samples;Min_cycle;Max_cycle;Signal;HPM_P1;HPM_P2
2023/01/03 00:00:40;;;;;;;0.55;0.55;;;9.70;99.90;;;;;;5067364;28;20040;-30
2023/01/03 00:03:06;;;;;;;0.50;0.50;;;9.60;99.90;;;;;;5065939;28;20037;-34
2023/01/03 00:05:35;;;;;;;0.50;0.50;;;9.50;99.90;;;;;;5064812;28;20040;-32
2023/01/03 00:08:01;;;;;;;0.50;0.50;;;9.50;99.90;;;;;;5086441;28;20036;-30
2023/01/03 00:10:28;;;;;;;0.50;0.50;;;9.40;99.90;;;;;;5067643;28;20035;-33
2023/01/03 00:12:55;;;;;;;0.50;0.50;;;9.30;99.90;;;;;;5069553;28;20031;-33
2023/01/03 00:15:21;;;;;;;0.52;0.50;;;9.30;99.90;;;;;;5071913;28;20407;-31
2023/01/03 00:17:47;;;;;;;0.60;0.60;;;9.30;99.90;;;;;;5077706;28;20035;-34
2023/01/03 00:20:13;;;;;;;0.50;0.50;;;9.30;99.90;;;;;;5064917;28;20029;-33
2023/01/03 00:22:38;;;;;;;0.57;0.57;;;9.30;99.90;;;;;;5066966;28;20027;-33
2023/01/03 00:25:04;;;;;;;0.50;0.50;;;9.30;99.90;;;;;;5066037;28;20288;-30
2023/01/03 00:27:30;;;;;;;0.70;0.70;;;9.20;99.90;;;;;;5062713;28;20033;-33
2023/01/03 00:29:55;;;;;;;0.73;0.70;;;9.20;99.90;;;;;;5068256;28;20707;-31
2023/01/03 00:32:21;;;;;;;0.40;0.40;;;9.20;99.90;;;;;;5068598;28;20127;-31
2023/01/03 00:34:47;;;;;;;0.57;0.57;;;9.30;99.90;;;;;;5067084;28;20036;-33
2023/01/03 00:37:14;;;;;;;0.63;0.63;;;9.20;99.90;;;;;;5066499;28;20056;-32
2023/01/03 00:39:40;;;;;;;0.68;0.60;;;9.20;99.90;;;;;;5067672;28;20024;-30
2023/01/03 00:42:06;;;;;;;0.60;0.60;;;9.20;99.90;;;;;;5060373;28;20032;-34
2023/01/03 00:44:32;;;;;;;0.50;0.50;;;9.20;99.90;;;;;;5058659;28;20513;-30
2023/01/03 00:46:58;;;;;;;0.65;0.65;;;9.30;99.90;;;;;;5072485;28;20036;-30
2023/01/03 00:49:24;;;;;;;0.55;0.55;;;9.20;99.90;;;;;;5072334;28;20024;-30
2023/01/03 00:51:52;;;;;;;0.50;0.50;;;9.10;99.90;;;;;;5068368;28;20373;-33
2023/01/03 00:54:18;;;;;;;0.60;0.60;;;9.00;99.90;;;;;;5079388;28;20040;-31
2023/01/03 00:56:46;;;;;;;0.88;0.88;;;8.90;99.90;;;;;;5069186;28;21704;-30
2023/01/03 00:59:13;;;;;;;0.70;0.70;;;8.90;99.90;;;;;;5066025;28;20674;-30
2023/01/03 01:01:47;;;;;;;1.27;1.00;;;9.00;99.90;;;;;;5065477;28;20576;-29
2023/01/03 01:04:20;;;;;;;0.70;0.70;;;9.00;99.90;;;;;;5070955;28;20036;-30
2023/01/03 01:06:52;;;;;;;0.77;0.77;;;9.00;99.90;;;;;;5073864;28;20119;-30
2023/01/03 01:09:23;;;;;;;0.85;0.85;;;8.90;99.90;;;;;;5064774;28;20033;-29
2023/01/03 01:11:49;;;;;;;0.70;0.70;;;8.80;99.90;;;;;;5068145;28;20050;-30
2023/01/03 01:14:18;;;;;;;1.13;0.70;;;8.90;99.90;;;;;;5075251;28;20418;-29
2023/01/03 01:17:12;;;;;;;1.30;0.77;;;8.90;99.90;;;;;;5067395;28;20500;-34
2023/01/03 01:19:40;;;;;;;0.70;0.70;;;8.90;99.90;;;;;;5063436;28;20448;-34
2023/01/03 01:22:06;;;;;;;1.75;0.80;;;8.90;99.90;;;;;;5065207;28;20093;-34
2023/01/03 01:24:32;;;;;;;0.73;0.73;;;8.90;99.90;;;;;;5060044;28;20029;-29
2023/01/03 01:26:58;;;;;;;0.75;0.75;;;9.00;99.90;;;;;;5065281;28;21529;-34
2023/01/03 01:29:24;;;;;;;0.77;0.77;;;9.00;99.90;;;;;;5065129;28;20213;-30
2023/01/03 01:31:50;;;;;;;0.75;0.75;;;8.90;99.90;;;;;;5063771;28;20064;-35
2023/01/03 01:34:16;;;;;;;0.80;0.77;;;8.90;99.90;;;;;;5068851;28;20032;-29
2023/01/03 01:36:43;;;;;;;0.70;0.70;;;8.90;99.90;;;;;;5062200;28;20070;-32
2023/01/03 01:39:20;;;;;;;1.10;0.85;;;8.80;99.90;;;;;;5081898;28;20056;-30
2023/01/03 01:44:53;;;;;;;2.05;1.17;;;8.70;99.90;;;;;;5070818;28;20509;-33
2023/01/03 01:47:38;;;;;;;0.80;0.80;;;8.70;99.90;;;;;;5062387;28;20032;-33
2023/01/03 01:50:15;;;;;;;0.70;0.70;;;8.80;99.90;;;;;;5063595;28;20033;-30
2023/01/03 01:52:47;;;;;;;0.98;0.57;;;8.80;99.90;;;;;;5062758;28;20973;-31
2023/01/03 01:55:16;;;;;;;0.52;0.52;;;8.80;99.90;;;;;;5063478;28;20028;-33
2023/01/03 01:57:43;;;;;;;0.80;0.80;;;8.70;99.90;;;;;;5062193;28;20119;-33
2023/01/03 02:00:09;;;;;;;0.90;0.90;;;8.70;99.90;;;;;;5068247;28;20046;-33
2023/01/03 02:02:35;;;;;;;0.80;0.80;;;8.80;99.90;;;;;;5069841;28;20036;-31
2023/01/03 02:05:05;;;;;;;0.68;0.68;;;8.70;99.90;;;;;;5073443;28;20800;-33
2023/01/03 02:07:31;;;;;;;0.95;0.90;;;8.70;99.90;;;;;;5069549;28;20577;-34
2023/01/03 02:09:58;;;;;;;0.98;0.70;;;8.70;99.90;;;;;;5064616;28;20160;-34
2023/01/03 02:15:35;;;;;;;0.70;0.70;;;8.80;99.90;;;;;;5073270;28;20043;-30
2023/01/03 02:18:29;;;;;;;0.80;0.80;;;8.70;99.90;;;;;;5069877;28;20020;-31
2023/01/03 02:21:31;;;;;;;2.05;1.10;;;8.70;99.90;;;;;;5070653;28;20035;-32
2023/01/03 02:24:12;;;;;;;1.50;1.20;;;8.70;99.90;;;;;;5071705;28;20052;-33
2023/01/03 02:26:56;;;;;;;0.80;0.80;;;8.60;99.90;;;;;;5074431;28;20032;-30
2023/01/03 02:29:53;;;;;;;1.63;1.02;;;8.60;99.90;;;;;;5073231;28;20072;-33
2023/01/03 02:32:33;;;;;;;1.20;1.10;;;8.50;99.90;;;;;;5069285;28;20029;-32
2023/01/03 02:35:20;;;;;;;1.27;1.17;;;8.50;99.90;;;;;;5068932;28;20070;-30
2023/01/03 02:38:02;;;;;;;1.05;0.90;;;8.40;99.90;;;;;;5076166;28;20052;-30
2023/01/03 02:40:54;;;;;;;1.00;1.00;;;8.40;99.90;;;;;;5070863;28;20085;-29
2023/01/03 02:43:41;;;;;;;0.80;0.80;;;8.40;99.90;;;;;;5070759;28;20946;-29
2023/01/03 02:46:16;;;;;;;0.85;0.85;;;8.40;99.90;;;;;;5069871;28;20528;-30
2023/01/03 02:49:03;;;;;;;0.80;0.80;;;8.50;99.90;;;;;;5068886;28;20083;-33
2023/01/03 02:51:35;;;;;;;0.90;0.85;;;8.50;99.90;;;;;;5074767;28;20043;-31
2023/01/03 02:54:04;;;;;;;1.00;0.90;;;8.40;99.90;;;;;;5068580;28;20060;-29
2023/01/03 02:57:07;;;;;;;1.30;0.90;;;8.20;99.90;;;;;;5070401;28;20036;-29
2023/01/03 03:00:07;;;;;;;1.55;0.80;;;8.00;99.90;;;;;;5057843;28;20116;-30
2023/01/03 03:02:35;;;;;;;2.05;0.60;;;8.00;99.90;;;;;;5072643;28;20504;-30
2023/01/03 03:05:05;;;;;;;1.33;1.05;;;8.10;99.90;;;;;;5072145;28;20075;-34
2023/01/03 03:07:36;;;;;;;2.72;1.15;;;8.10;99.90;;;;;;5073420;28;20028;-31
2023/01/03 03:16:09;;;;;;;0.88;0.88;;;8.10;99.90;;;;;;5067880;28;20101;-31
2023/01/03 03:18:57;;;;;;;1.45;1.35;;;8.20;99.90;;;;;;5058814;28;20485;-33
2023/01/03 03:29:57;;;;;;;1.08;1.00;;;8.10;99.90;;;;;;5070870;28;20097;-31
2023/01/03 03:32:26;;;;;;;0.75;0.75;;;8.10;99.90;;;;;;5074910;28;20036;-34
2023/01/03 03:34:54;;;;;;;2.28;1.40;;;8.10;99.90;;;;;;5068219;28;20481;-29
2023/01/03 03:37:22;;;;;;;0.82;0.82;;;7.80;99.90;;;;;;5067579;28;20679;-29
2023/01/03 03:45:45;;;;;;;1.95;1.20;;;7.40;99.90;;;;;;5068621;28;20435;-30
2023/01/03 03:51:31;;;;;;;1.10;1.00;;;7.60;99.90;;;;;;5062637;28;20105;-30
2023/01/03 03:54:01;;;;;;;1.88;1.50;;;7.80;99.90;;;;;;5066652;28;20063;-30
2023/01/03 03:56:30;;;;;;;2.80;2.30;;;7.80;99.90;;;;;;5068308;28;20032;-32
2023/01/03 03:59:01;;;;;;;2.95;1.90;;;7.80;99.90;;;;;;5071833;28;20048;-28
2023/01/03 04:01:27;;;;;;;1.33;1.20;;;7.90;99.90;;;;;;5066393;28;20032;-32
2023/01/03 04:03:56;;;;;;;1.13;1.08;;;7.90;99.90;;;;;;5067236;28;20119;-30
2023/01/03 04:06:32;;;;;;;1.73;1.63;;;7.80;99.90;;;;;;5067737;28;20028;-29
2023/01/03 04:08:58;;;;;;;1.42;1.20;;;7.80;99.90;;;;;;5067922;28;20981;-29
2023/01/03 04:11:24;;;;;;;1.45;1.20;;;7.90;99.90;;;;;;5069557;28;20523;-29
2023/01/03 04:13:50;;;;;;;1.40;1.30;;;7.80;99.90;;;;;;5064376;28;20044;-31
2023/01/03 04:16:15;;;;;;;1.13;1.02;;;7.90;99.90;;;;;;5064808;28;20056;-30
2023/01/03 04:18:43;;;;;;;2.15;1.15;;;7.90;99.90;;;;;;5067178;28;20020;-29
2023/01/03 04:21:09;;;;;;;1.73;1.20;;;8.00;99.90;;;;;;5084166;28;20034;-31
2023/01/03 04:23:35;;;;;;;1.30;1.20;;;8.00;99.90;;;;;;5067449;28;20032;-29
2023/01/03 04:26:00;;;;;;;1.42;1.33;;;8.00;99.90;;;;;;5069105;28;20027;-30
2023/01/03 04:28:26;;;;;;;1.02;1.02;;;8.00;99.90;;;;;;5065769;28;20730;-29
2023/01/03 04:30:52;;;;;;;1.38;1.38;;;7.90;99.90;;;;;;5064733;28;20052;-30
2023/01/03 04:33:18;;;;;;;1.77;1.00;;;7.90;99.90;;;;;;5067897;28;20032;-29
2023/01/03 04:35:43;;;;;;;1.40;1.20;;;7.90;99.90;;;;;;5068393;28;20086;-32
2023/01/03 04:38:09;;;;;;;1.45;1.20;;;7.90;99.90;;;;;;5069775;28;20029;-33
2023/01/03 04:40:37;;;;;;;1.30;1.20;;;7.90;99.90;;;;;;5068041;28;20389;-29
2023/01/03 04:45:48;;;;;;;1.38;1.27;;;7.90;99.90;;;;;;5078107;28;20455;-30
2023/01/03 04:48:13;;;;;;;1.23;1.13;;;7.90;99.90;;;;;;5075386;28;20021;-29
2023/01/03 04:50:39;;;;;;;1.40;1.30;;;7.90;99.90;;;;;;5077848;28;20054;-29
2023/01/03 04:53:05;;;;;;;2.72;1.40;;;8.00;99.90;;;;;;5077410;28;20028;-33
2023/01/03 04:55:31;;;;;;;1.83;1.40;;;7.80;99.90;;;;;;5067077;28;20043;-29
2023/01/03 04:57:57;;;;;;;2.22;1.40;;;7.80;99.90;;;;;;5064971;28;20024;-32
2023/01/03 05:00:22;;;;;;;1.48;1.35;;;7.70;99.90;;;;;;5069043;28;20107;-33
2023/01/03 05:02:48;;;;;;;1.58;1.30;;;7.70;99.90;;;;;;5067503;28;20617;-32
2023/01/03 05:05:14;;;;;;;1.42;1.17;;;7.70;99.90;;;;;;5066793;28;20584;-29
2023/01/03 05:07:39;;;;;;;1.52;1.42;;;7.80;99.90;;;;;;5069287;28;20493;-29
2023/01/03 05:10:06;;;;;;;2.83;1.60;;;7.70;99.90;;;;;;5065921;28;20541;-32
2023/01/03 05:12:31;;;;;;;1.40;1.30;;;7.50;99.90;;;;;;5080828;28;20031;-30
2023/01/03 05:14:57;;;;;;;1.92;1.55;;;7.50;99.90;;;;;;5069975;28;20052;-30
2023/01/03 05:17:22;;;;;;;4.50;2.33;;;7.60;99.90;;;;;;5076622;28;20024;-31
2023/01/03 05:28:02;;;;;;;1.60;1.50;;;7.70;99.90;;;;;;5074387;28;20031;-29
2023/01/03 05:30:29;;;;;;;1.52;1.42;;;7.70;99.90;;;;;;5071142;28;20063;-34
2023/01/03 05:32:54;;;;;;;1.35;1.25;;;7.70;99.90;;;;;;5073268;28;20040;-32
2023/01/03 05:35:20;;;;;;;2.72;1.40;;;7.60;99.90;;;;;;5077068;28;20032;-29
2023/01/03 05:37:46;;;;;;;2.25;1.40;;;7.60;99.90;;;;;;5088754;28;20032;-31
2023/01/03 05:40:12;;;;;;;1.92;1.60;;;7.60;99.90;;;;;;5076576;28;20523;-29
2023/01/03 05:42:38;;;;;;;3.17;1.50;;;7.60;99.90;;;;;;5074594;28;20032;-28
2023/01/03 05:45:04;;;;;;;2.15;1.73;;;7.60;99.90;;;;;;5076277;28;20021;-32
2023/01/03 05:47:30;;;;;;;1.70;1.40;;;7.50;99.90;;;;;;5082431;28;20035;-28
2023/01/03 05:49:56;;;;;;;2.63;1.70;;;7.60;99.90;;;;;;5073566;28;20032;-30
2023/01/03 05:52:21;;;;;;;3.97;1.77;;;7.60;99.90;;;;;;5074621;28;20555;-30
2023/01/03 05:54:47;;;;;;;2.17;1.70;;;7.70;99.90;;;;;;5073019;28;20024;-31
2023/01/03 05:57:13;;;;;;;1.70;1.60;;;7.70;99.90;;;;;;5074169;28;20055;-33
2023/01/03 05:59:38;;;;;;;4.75;1.88;;;7.70;99.90;;;;;;5080469;28;20020;-29
2023/01/03 06:02:04;;;;;;;1.80;1.70;;;7.70;99.90;;;;;;5071879;28;20054;-33
2023/01/03 06:04:29;;;;;;;2.50;1.55;;;7.80;99.90;;;;;;5079522;28;20064;-29
2023/01/03 06:06:55;;;;;;;3.60;1.55;;;7.80;99.90;;;;;;5073751;28;20173;-33
2023/01/03 06:09:21;;;;;;;2.00;1.50;;;7.80;99.90;;;;;;5088367;27;20077;-29
2023/01/03 06:11:46;;;;;;;2.95;1.75;;;7.80;99.90;;;;;;5074174;28;20109;-29
2023/01/03 06:14:12;;;;;;;3.92;1.73;;;7.80;99.90;;;;;;5073285;28;20050;-30
2023/01/03 06:19:22;;;;;;;2.25;1.55;;;7.70;99.90;;;;;;5080224;28;20516;-29
2023/01/03 06:21:47;;;;;;;1.90;1.65;;;7.60;99.90;;;;;;5075850;28;20028;-31
2023/01/03 06:24:13;;;;;;;1.98;1.77;;;7.60;99.90;;;;;;5072898;28;20039;-32
2023/01/03 06:26:39;;;;;;;2.28;1.88;;;7.50;99.90;;;;;;5077575;28;20501;-33
2023/01/03 06:29:05;;;;;;;2.40;1.48;;;7.50;99.90;;;;;;5071939;28;20141;-32
2023/01/03 06:31:31;;;;;;;2.22;1.83;;;7.50;99.90;;;;;;5068261;28;20638;-31
2023/01/03 06:33:56;;;;;;;3.35;1.70;;;7.50;99.90;;;;;;5069603;28;20103;-29
2023/01/03 06:36:24;;;;;;;1.70;1.50;;;7.40;99.90;;;;;;5074629;28;20519;-30
2023/01/03 06:38:51;;;;;;;2.53;1.58;;;7.40;99.90;;;;;;5076886;28;20020;-34
2023/01/03 06:41:17;;;;;;;2.40;1.75;;;7.40;99.90;;;;;;5070261;28;20032;-32
2023/01/03 06:43:43;;;;;;;3.17;1.75;;;7.30;99.90;;;;;;5072665;28;20025;-36
2023/01/03 06:54:32;;;;;;;2.28;1.80;;;7.30;99.90;;;;;;5071178;28;20082;-38
2023/01/03 06:56:58;;;;;;;3.08;1.48;;;7.30;99.90;;;;;;5064947;28;20650;-37
2023/01/03 06:59:24;;;;;;;4.53;1.65;;;7.30;99.90;;;;;;5065128;28;20028;-39
2023/01/03 07:01:51;;;;;;;3.13;1.92;;;7.40;99.90;;;;;;5064195;28;20051;-39
2023/01/03 07:04:17;;;;;;;2.55;2.00;;;7.40;99.90;;;;;;5066683;28;20068;-38
2023/01/03 07:06:43;;;;;;;3.45;2.05;;;7.40;99.90;;;;;;5065743;28;20404;-39
2023/01/03 07:09:10;;;;;;;2.42;1.70;;;7.50;99.90;;;;;;5067061;28;20032;-38
2023/01/03 07:11:37;;;;;;;2.03;1.67;;;7.50;99.90;;;;;;5071111;28;20032;-39
2023/01/03 07:14:04;;;;;;;1.77;1.65;;;7.50;99.90;;;;;;5081011;28;20056;-35
2023/01/03 07:16:41;;;;;;;1.90;1.60;;;7.50;99.90;;;;;;5070467;28;20036;-39
2023/01/03 07:19:13;;;;;;;2.15;1.60;;;7.50;99.90;;;;;;5066652;28;20173;-37
2023/01/03 07:21:40;;;;;;;1.95;1.67;;;7.60;99.90;;;;;;5065573;28;20028;-33
2023/01/03 07:24:06;;;;;;;1.70;1.60;;;7.50;99.90;;;;;;5065711;28;20031;-38
2023/01/03 07:26:34;;;;;;;1.80;1.70;;;7.50;99.90;;;;;;5069548;28;20036;-35
2023/01/03 07:29:02;;;;;;;2.75;1.83;;;7.50;99.90;;;;;;5066182;28;20017;-35
2023/01/03 07:31:28;;;;;;;4.43;1.90;;;7.40;99.90;;;;;;5085660;23;20048;-74
2023/01/03 07:33:54;;;;;;;2.05;1.92;;;7.40;99.90;;;;;;5068860;28;20039;-74
2023/01/03 07:36:21;;;;;;;2.47;2.10;;;7.40;99.90;;;;;;5077029;28;20032;-74
2023/01/03 07:38:46;;;;;;;4.00;2.28;;;7.40;99.90;;;;;;5074398;28;20020;-74
2023/01/03 07:41:13;;;;;;;5.03;2.20;;;7.40;99.90;;;;;;5082441;28;20434;-74
2023/01/03 07:43:42;;;;;;;2.60;2.15;;;7.30;99.90;;;;;;5080119;28;20046;-74
2023/01/03 07:46:22;;;;;;;3.30;2.03;;;7.20;99.90;;;;;;5078925;28;20727;-75
2023/01/03 07:48:53;;;;;;;2.40;1.80;;;7.20;99.90;;;;;;5079935;28;20040;-75
2023/01/03 07:51:21;;;;;;;2.97;1.90;;;7.20;99.90;;;;;;5075516;28;20040;-74
2023/01/03 07:53:51;;;;;;;6.05;2.90;;;7.20;99.90;;;;;;5075542;28;20036;-75
2023/01/03 07:56:18;;;;;;;5.10;2.70;;;7.20;99.90;;;;;;5076782;28;20687;-75
2023/01/03 07:58:45;;;;;;;5.80;2.20;;;7.20;99.90;;;;;;5080734;28;20115;-75
2023/01/03 08:01:16;;;;;;;5.40;2.15;;;7.20;99.90;;;;;;5099803;27;20055;-75
2023/01/03 08:03:43;;;;;;;4.25;2.95;;;7.20;99.90;;;;;;5113147;27;20059;-75
2023/01/03 08:06:14;;;;;;;3.58;2.25;;;7.30;99.90;;;;;;5115310;27;20060;-74
2023/01/03 08:08:40;;;;;;;4.68;2.53;;;7.20;99.90;;;;;;5111952;27;20028;-74
2023/01/03 08:13:53;;;;;;;4.57;2.08;;;7.20;99.90;;;;;;5108623;27;20054;-75
2023/01/03 08:16:18;;;;;;;2.17;1.98;;;7.10;99.90;;;;;;5115782;27;20696;-74
2023/01/03 08:18:44;;;;;;;1.60;1.50;;;7.10;99.90;;;;;;5115804;28;20041;-75
2023/01/03 08:21:13;;;;;;;2.40;2.00;;;7.10;99.90;;;;;;5109064;27;20395;-75
2023/01/03 08:23:39;;;;;;;5.22;1.98;;;7.20;99.90;;;;;;5120787;27;20023;-75
2023/01/03 08:26:09;;;;;;;3.08;2.10;;;7.10;99.90;;;;;;5108161;27;20034;-75
2023/01/03 08:28:35;;;;;;;5.57;2.20;;;7.00;99.90;;;;;;5114599;27;20055;-75
2023/01/03 08:31:06;;;;;;;3.97;1.80;;;7.00;99.90;;;;;;5115321;27;20035;-75
2023/01/03 08:33:37;;;;;;;3.13;2.10;;;6.90;99.90;;;;;;5113201;28;20087;-75
2023/01/03 08:36:05;;;;;;;1.88;1.75;;;6.90;99.90;;;;;;5115245;27;20031;-75
2023/01/03 08:38:37;;;;;;;2.65;1.75;;;6.90;99.90;;;;;;5109138;28;20031;-75
2023/01/03 08:41:05;;;;;;;3.63;2.42;;;6.90;99.90;;;;;;5112228;27;20036;-75
2023/01/03 08:43:34;;;;;;;3.53;2.10;;;6.90;99.90;;;;;;5114124;28;20069;-75
2023/01/03 08:46:01;;;;;;;2.40;2.20;;;7.00;99.90;;;;;;5102807;27;20051;-75
2023/01/03 08:48:27;;;;;;;5.45;2.40;;;7.00;99.90;;;;;;5100721;28;20175;-76
2023/01/03 08:50:52;;;;;;;2.80;2.20;;;7.00;99.90;;;;;;5105416;28;20042;-75
2023/01/03 08:53:18;;;;;;;3.75;2.60;;;7.00;99.90;;;;;;5107509;28;20030;-75
2023/01/03 08:55:43;;;;;;;3.17;2.80;;;7.10;99.90;;;;;;5112497;28;20095;-74
2023/01/03 08:58:09;;;;;;;4.90;2.75;;;7.10;99.90;;;;;;5106845;27;20039;-75
2023/01/03 09:00:36;;;;;;;4.18;2.63;;;7.20;99.90;;;;;;5116595;27;20058;-75
2023/01/03 09:03:01;;;;;;;2.72;2.30;;;7.20;99.90;;;;;;5107325;28;20031;-75
2023/01/03 09:05:28;;;;;;;3.03;2.35;;;7.30;99.90;;;;;;5110087;27;20028;-75
2023/01/03 09:07:54;;;;;;;3.28;2.47;;;7.30;99.90;;;;;;5111262;27;20035;-75
2023/01/03 09:10:21;;;;;;;5.10;3.03;;;7.30;99.90;;;;;;5107091;28;20053;-75
2023/01/03 09:12:46;;;;;;;4.18;2.20;;;7.30;99.90;;;;;;5108055;28;20023;-75
2023/01/03 09:15:12;;;;;;;2.95;2.45;;;7.40;99.90;;;;;;5107473;28;20042;-75
2023/01/03 09:17:42;;;;;;;2.45;2.25;;;7.40;99.90;;;;;;5114736;28;20102;-75
2023/01/03 09:20:09;;;;;;;3.45;2.70;;;7.50;99.90;;;;;;5111043;28;20139;-75
2023/01/03 09:22:35;;;;;;;4.60;3.15;;;7.50;99.90;;;;;;5122685;28;20039;-75
2023/01/03 09:25:00;;;;;;;5.00;2.95;;;7.60;99.90;;;;;;5118435;28;20028;-75
2023/01/03 09:27:26;;;;;;;4.40;3.15;;;7.60;99.90;;;;;;5115698;28;20035;-75
2023/01/03 09:29:52;;;;;;;2.97;2.70;;;7.60;99.90;;;;;;5113188;28;20037;-75
2023/01/03 09:32:17;;;;;;;3.17;2.88;;;7.60;99.90;;;;;;5116127;27;20059;-75
2023/01/03 09:34:43;;;;;;;4.07;3.10;;;7.70;99.90;;;;;;5116803;28;20030;-75
2023/01/03 09:37:08;;;;;;;5.57;3.40;;;7.60;99.90;;;;;;5117958;28;20031;-75
2023/01/03 09:39:35;;;;;;;4.18;3.22;;;7.60;99.90;;;;;;5113829;28;20092;-75
2023/01/03 09:44:45;;;;;;;3.67;2.95;;;7.60;99.90;;;;;;5108658;28;20053;-75
2023/01/03 09:47:18;;;;;;;6.10;3.95;;;7.70;99.90;;;;;;5105972;28;20714;-75
2023/01/03 09:49:44;;;;;;;5.57;3.80;;;7.70;99.90;;;;;;5110786;28;20059;-75
2023/01/03 10:04:33;;;;;;;5.85;3.70;;;7.60;99.90;;;;;;5117149;28;20689;-75
2023/01/03 10:07:35;;;;;;;5.07;3.88;;;7.60;99.90;;;;;;5114281;27;20036;-73
2023/01/03 10:10:35;;;;;;;5.05;3.55;;;7.60;99.90;;;;;;5109034;28;20031;-74
2023/01/03 10:13:45;;;;;;;4.40;3.53;;;7.60;99.90;;;;;;5114128;28;20055;-73
2023/01/03 10:16:13;;;;;;;4.65;3.38;;;7.60;99.90;;;;;;5107876;27;20447;-73
2023/01/03 10:19:01;;;;;;;3.28;2.97;;;7.60;99.90;;;;;;5116230;27;20070;-74
2023/01/03 10:21:51;;;;;;;6.35;3.22;;;7.60;99.90;;;;;;5115351;28;20109;-74
2023/01/03 10:24:23;;;;;;;4.35;3.22;;;7.60;99.90;;;;;;5103926;28;20036;-74
2023/01/03 10:27:06;;;;;;;6.28;3.67;;;7.60;99.90;;;;;;5113623;27;20031;-75
2023/01/03 10:29:31;;;;;;;4.57;3.70;;;7.70;99.90;;;;;;5113897;27;20044;-74
2023/01/03 10:32:38;;;;;;;3.35;3.00;;;7.70;99.90;;;;;;5106768;28;20113;-73
2023/01/03 10:35:21;;;;;;;6.28;3.30;;;7.80;99.90;;;;;;5110339;28;20028;-73
2023/01/03 10:37:49;;;;;;;4.57;3.65;;;7.80;99.90;;;;;;5113698;27;20040;-73
2023/01/03 10:40:14;;;;;;;4.20;2.75;;;7.80;99.90;;;;;;5112917;28;20024;-74
2023/01/03 10:42:42;;;;;;;4.05;2.97;;;7.70;99.90;;;;;;5118147;28;20031;-74
2023/01/03 10:45:19;;;;;;;4.90;3.55;;;7.80;99.90;;;;;;5108460;28;20028;-73
2023/01/03 10:47:57;;;;;;;4.80;2.95;;;7.80;99.90;;;;;;5110790;27;20121;-74
2023/01/03 10:50:23;;;;;;;4.35;3.15;;;7.90;99.90;;;;;;5113554;27;20039;-74
2023/01/03 10:53:03;;;;;;;3.22;2.80;;;8.00;99.90;;;;;;5106063;27;20068;-74
2023/01/03 10:55:28;;;;;;;3.90;2.92;;;8.00;99.90;;;;;;5110634;27;20024;-74
2023/01/03 10:57:54;;;;;;;3.63;2.58;;;8.10;99.90;;;;;;5117327;27;20047;-72
2023/01/03 11:00:21;;;;;;;4.80;3.08;;;8.10;99.90;;;;;;5108384;28;20034;-73
2023/01/03 11:02:47;;;;;;;3.53;2.92;;;8.20;99.90;;;;;;5109796;28;20032;-73
2023/01/03 11:05:20;;;;;;;4.15;3.28;;;8.20;99.90;;;;;;5115911;27;20028;-74
2023/01/03 11:07:55;;;;;;;2.80;2.60;;;8.30;99.90;;;;;;5113851;28;20034;-74
2023/01/03 11:10:23;;;;;;;3.60;3.17;;;8.30;99.90;;;;;;5115198;27;20040;-74
2023/01/03 11:12:48;;;;;;;3.30;2.58;;;8.30;99.90;;;;;;5113381;27;20042;-74
2023/01/03 11:15:32;;;;;;;4.40;3.28;;;8.30;99.90;;;;;;5108741;28;20102;-74
2023/01/03 11:18:15;;;;;;;5.50;3.47;;;8.20;99.90;;;;;;5108398;27;20040;-74
2023/01/03 11:21:16;;;;;;;4.97;2.70;;;8.20;99.90;;;;;;5121186;27;20066;-74
2023/01/03 11:24:00;;;;;;;4.45;3.30;;;8.30;99.90;;;;;;5110898;28;20047;-74
2023/01/03 11:27:01;;;;;;;3.10;2.80;;;8.20;99.90;;;;;;5109108;28;20031;-74
2023/01/03 11:29:32;;;;;;;3.58;2.97;;;8.30;99.90;;;;;;5115239;27;20031;-76
2023/01/03 11:32:42;;;;;;;3.13;2.75;;;8.20;99.90;;;;;;5106759;28;20101;-73
2023/01/03 11:35:16;;;;;;;3.72;3.03;;;8.30;99.90;;;;;;5093662;28;20042;-74
2023/01/03 11:38:06;;;;;;;5.95;2.90;;;8.30;99.90;;;;;;5116714;27;20124;-74
2023/01/03 11:40:38;;;;;;;4.50;2.70;;;8.30;99.90;;;;;;5107745;28;20079;-74
2023/01/03 11:43:37;;;;;;;2.92;2.33;;;8.30;99.90;;;;;;5116167;27;20023;-74
2023/01/03 11:46:12;;;;;;;3.22;2.55;;;8.20;99.90;;;;;;5110561;28;20032;-74
2023/01/03 11:48:56;;;;;;;2.70;2.47;;;8.10;99.90;;;;;;5108656;28;20044;-74
2023/01/03 11:51:27;;;;;;;2.67;2.47;;;8.10;99.90;;;;;;5109564;28;20034;-74
2023/01/03 11:54:00;;;;;;;3.80;2.70;;;8.10;99.90;;;;;;5114926;27;20035;-74
2023/01/03 11:56:30;;;;;;;3.40;3.10;;;8.10;99.90;;;;;;5102575;27;20036;-74
2023/01/03 11:59:11;;;;;;;3.55;2.97;;;8.20;99.90;;;;;;5112292;27;20034;-74
2023/01/03 12:02:04;;;;;;;3.50;2.80;;;8.20;99.90;;;;;;5107577;28;20074;-74
2023/01/03 12:04:47;;;;;;;4.82;3.10;;;8.20;99.90;;;;;;5105772;27;20028;-74
2023/01/03 12:07:36;;;;;;;2.90;2.60;;;8.30;99.90;;;;;;5112105;28;20034;-73
2023/01/03 12:10:11;;;;;;;3.60;2.95;;;8.40;99.90;;;;;;5102947;28;20028;-74
2023/01/03 12:12:50;;;;;;;3.55;2.95;;;8.30;99.90;;;;;;5114750;27;20079;-74
2023/01/03 12:15:25;;;;;;;3.85;2.80;;;8.30;99.90;;;;;;5111308;27;20366;-73
2023/01/03 12:18:39;;;;;;;3.42;3.13;;;8.20;99.90;;;;;;5114323;27;20387;-74
2023/01/03 12:21:32;;;;;;;4.00;2.97;;;8.30;99.90;;;;;;5104179;27;20043;-73
2023/01/03 12:24:22;;;;;;;4.40;3.38;;;8.20;99.90;;;;;;5105963;28;20036;-73
2023/01/03 12:26:55;;;;;;;4.22;3.50;;;8.20;99.90;;;;;;5110867;27;20036;-74
2023/01/03 12:29:28;;;;;;;4.32;3.33;;;8.20;99.90;;;;;;5118241;27;20027;-73
2023/01/03 12:32:01;;;;;;;3.25;2.63;;;8.30;99.90;;;;;;5108100;28;20063;-74
2023/01/03 12:34:45;;;;;;;4.57;3.22;;;8.40;99.90;;;;;;5108784;28;20036;-73
2023/01/03 12:37:21;;;;;;;4.30;3.47;;;8.40;99.90;;;;;;5108925;28;20040;-74
2023/01/03 12:39:53;;;;;;;4.50;3.40;;;8.40;99.90;;;;;;5108263;27;20024;-75
2023/01/03 12:42:30;;;;;;;4.05;3.15;;;8.40;99.90;;;;;;5104239;28;20111;-75
2023/01/03 12:45:04;;;;;;;3.83;3.47;;;8.40;99.90;;;;;;5113001;28;20037;-75
2023/01/03 12:47:36;;;;;;;5.88;3.60;;;8.40;99.90;;;;;;5108626;28;20250;-75
2023/01/03 12:50:24;;;;;;;4.65;3.50;;;8.30;99.90;;;;;;5108506;28;20035;-75
2023/01/03 12:53:04;;;;;;;8.30;3.72;;;8.30;99.90;;;;;;5101223;27;20051;-75
2023/01/03 12:56:07;;;;;;;3.15;2.83;;;8.40;99.90;;;;;;5100491;28;20035;-76
2023/01/03 12:58:45;;;;;;;5.75;3.78;;;8.30;99.90;;;;;;5075600;28;20101;-76
2023/01/03 13:01:16;;;;;;;5.82;4.03;;;8.30;99.90;;;;;;5112065;28;20047;-76
2023/01/03 13:03:51;;;;;;;4.30;2.92;;;8.40;99.90;;;;;;5114114;27;20028;-76
2023/01/03 13:06:19;;;;;;;4.10;3.20;;;8.40;99.90;;;;;;5116524;28;20776;-76
2023/01/03 13:08:56;;;;;;;;;;;8.50;99.90;;;;;;5110690;28;20114;-76
2023/01/03 13:11:32;;;;;;;5.03;3.63;;;8.50;99.90;;;;;;5102332;28;19954;-77
2023/01/03 13:14:18;;;;;;;3.50;2.97;;;8.60;99.90;;;;;;5113428;28;20042;-75
2023/01/03 13:16:47;;;;;;;3.25;2.95;;;8.60;99.90;;;;;;5108260;28;20042;-76
2023/01/03 13:19:19;;;;;;;3.03;2.72;;;8.50;99.90;;;;;;5105064;27;20031;-76
2023/01/03 13:21:53;;;;;;;4.22;3.00;;;8.60;99.90;;;;;;5105212;28;20435;-76
2023/01/03 13:24:37;;;;;;;3.70;3.17;;;8.60;99.90;;;;;;5110272;28;20052;-75
2023/01/03 13:27:24;;;;;;;4.05;3.20;;;8.70;99.90;;;;;;5111241;28;20035;-75
2023/01/03 13:29:49;;;;;;;3.22;2.92;;;8.70;99.90;;;;;;5104878;28;20047;-76
2023/01/03 13:32:21;;;;;;;3.40;2.65;;;8.60;99.90;;;;;;5130185;27;20055;-76
2023/01/03 13:34:55;;;;;;;3.90;2.70;;;8.60;99.90;;;;;;5118455;28;20072;-76
2023/01/03 13:37:21;;;;;;;3.15;2.85;;;8.50;99.90;;;;;;5119359;27;20045;-76
2023/01/03 13:39:50;;;;;;;6.22;3.17;;;8.60;99.90;;;;;;5121290;28;20030;-76
2023/01/03 13:42:18;;;;;;;;;;;8.60;99.90;;;;;;5118302;27;20101;-76
2023/01/03 13:44:44;;;;;;;5.63;2.80;;;8.70;99.90;;;;;;5121314;28;20521;-77
2023/01/03 13:47:36;;;;;;;6.25;3.60;;;8.70;99.90;;;;;;5117763;27;20055;-76
2023/01/03 13:50:02;;;;;;;3.35;3.05;;;8.50;99.90;;;;;;5122863;27;20023;-76
2023/01/03 13:52:36;;;;;;;4.55;3.10;;;8.40;99.90;;;;;;5117993;27;20113;-76
2023/01/03 13:55:01;;;;;;;4.88;3.47;;;8.40;99.90;;;;;;5114219;28;20048;-76
2023/01/03 13:57:37;;;;;;;4.40;3.00;;;8.30;99.90;;;;;;5117153;28;20556;-76
2023/01/03 14:00:16;;;;;;;4.78;3.85;;;8.20;99.90;;;;;;5115789;27;20039;-76
2023/01/03 14:03:09;;;;;;;5.28;3.47;;;8.20;99.90;;;;;;5109420;28;20055;-76
2023/01/03 14:05:38;;;;;;;4.70;4.00;;;8.10;99.90;;;;;;5124036;27;20031;-76
2023/01/03 14:08:21;;;;;;;6.00;4.05;;;8.10;99.90;;;;;;5119707;27;20098;-77
2023/01/03 14:11:22;;;;;;;6.78;4.53;;;8.10;99.90;;;;;;5112761;28;20032;-76
2023/01/03 14:13:51;;;;;;;5.13;3.40;;;8.10;99.90;;;;;;5107754;27;20047;-76
2023/01/03 14:16:20;;;;;;;6.13;3.95;;;8.10;99.90;;;;;;5114121;27;20101;-76
2023/01/03 14:19:04;;;;;;;;;;;8.00;99.90;;;;;;5118586;28;20038;-76
2023/01/03 14:21:40;;;;;;;4.32;3.50;;;7.90;99.90;;;;;;5106811;27;20345;-76
2023/01/03 14:24:13;;;;;;;4.82;3.50;;;7.90;99.90;;;;;;5108882;28;20032;-76
2023/01/03 14:26:39;;;;;;;7.00;3.78;;;7.90;99.90;;;;;;5115611;27;20057;-75
2023/01/03 14:29:09;;;;;;;3.97;3.58;;;7.80;99.90;;;;;;5116339;28;20031;-76
2023/01/03 14:31:41;;;;;;;4.28;3.55;;;7.80;99.90;;;;;;5118447;27;20564;-76